Time;durP1;ratioP1;P1;durP2;ratioP2;P2;SDS_P1;SDS_P2;PMS_P1;PMS_P2;Temp;Humidity;BMP_temperature;BMP_pressure;BME280_temperature;BME280_humidity;BME280_pressure;Samples;Min_cycle;Max_cycle;Signal;HPM_P1;HPM_P2
2023/09/14 00:02:00;;;;;;;;;;;;;;;;;;4977554;28;92196;-61
2023/09/14 00:04:25;;;;;;;;;;;;;;;;;;4964995;28;95107;-61
2023/09/14 00:06:50;;;;;;;;;;;;;;;;;;4963963;28;91833;-62
2023/09/14 00:09:15;;;;;;;;;;;;;;;;;;4963228;28;92353;-61
2023/09/14 00:11:40;;;;;;;;;;;;;;;;;;4962699;28;92914;-63
2023/09/14 00:14:06;;;;;;;;;;;;;;;;;;4962314;28;93792;-60
2023/09/14 00:16:31;;;;;;;;;;;;;;;;;;4980838;28;93267;-61
2023/09/14 00:18:56;;;;;;;;;;;;;;;;;;4977700;28;92606;-65
2023/09/14 00:21:21;;;;;;;;;;;;;;;;;;4962716;28;92723;-61
2023/09/14 00:23:47;;;;;;;;;;;;;;;;;;4962401;28;92654;-65
2023/09/14 00:26:12;;;;;;;;;;;;;;;;;;4965454;28;93816;-65
2023/09/14 00:28:37;;;;;;;;;;;;;;;;;;4962909;28;93154;-62
2023/09/14 00:31:02;;;;;;;;;;;;;;;;;;4963520;28;92738;-60
2023/09/14 00:33:28;;;;;;;;;;;;;;;;;;4963176;28;92991;-61
2023/09/14 00:35:53;;;;;;;;;;;;;;;;;;4962847;28;93275;-63
2023/09/14 00:38:18;;;;;;;;;;;;;;;;;;4961861;28;93939;-61
2023/09/14 00:40:43;;;;;;;;;;;;;;;;;;4962905;28;92836;-60
2023/09/14 00:43:09;;;;;;;;;;;;;;;;;;4963269;28;93629;-62
2023/09/14 00:45:34;;;;;;;;;;;;;;;;;;4962745;28;93374;-66
2023/09/14 00:48:02;;;;;;;;;;;;;;;;;;4965484;28;92292;-63
2023/09/14 00:50:28;;;;;;;;;;;;;;;;;;4962546;28;92742;-61
2023/09/14 00:52:57;;;;;;;;;;;;;;;;;;4962502;28;92286;-65
2023/09/14 00:55:23;;;;;;;;;;;;;;;;;;4963054;28;92272;-63
2023/09/14 00:57:49;;;;;;;;;;;;;;;;;;4961956;28;93672;-66
2023/09/14 01:00:14;;;;;;;;;;;;;;;;;;4962457;28;92364;-63
2023/09/14 01:02:40;;;;;;;;;;;;;;;;;;4962260;28;93558;-65
2023/09/14 01:05:06;;;;;;;;;;;;;;;;;;4962688;28;93919;-62
2023/09/14 01:07:31;;;;;;;;;;;;;;;;;;4962553;28;92302;-60
2023/09/14 01:09:57;;;;;;;;;;;;;;;;;;4968805;28;93217;-60
2023/09/14 01:12:22;;;;;;;;;;;;;;;;;;4965411;28;92466;-60
2023/09/14 01:14:47;;;;;;;;;;;;;;;;;;4965675;28;92720;-63
2023/09/14 01:17:25;;;;;;;;;;;;;;;;;;4965962;28;92963;-60
2023/09/14 01:19:56;;;;;;;;;;;;;;;;;;4968286;28;91832;-61
2023/09/14 01:22:41;;;;;;;;;;;;;;;;;;4965104;28;93479;-63
2023/09/14 01:25:10;;;;;;;;;;;;;;;;;;4965080;28;92711;-60
2023/09/14 01:27:35;;;;;;;;;;;;;;;;;;4964737;28;93644;-61
2023/09/14 01:30:02;;;;;;;;;;;;;;;;;;4965653;28;93434;-61
2023/09/14 01:32:28;;;;;;;;;;;;;;;;;;4968089;28;93777;-62
2023/09/14 01:34:53;;;;;;;;;;;;;;;;;;4965064;28;92497;-63
2023/09/14 01:37:20;;;;;;;;;;;;;;;;;;4965313;28;93941;-65
2023/09/14 01:39:45;;;;;;;;;;;;;;;;;;4968255;28;92725;-64
2023/09/14 01:42:11;;;;;;;;;;;;;;;;;;4984996;28;93458;-63
2023/09/14 01:44:36;;;;;;;;;;;;;;;;;;4985030;28;92135;-64
2023/09/14 01:47:02;;;;;;;;;;;;;;;;;;4985196;28;92772;-62
2023/09/14 01:49:27;;;;;;;;;;;;;;;;;;4985001;28;93577;-65
2023/09/14 01:51:53;;;;;;;;;;;;;;;;;;4983730;28;94403;-65
2023/09/14 01:54:18;;;;;;;;;;;;;;;;;;4987101;28;92836;-66
2023/09/14 01:56:43;;;;;;;;;;;;;;;;;;4984172;28;92213;-62
2023/09/14 01:59:08;;;;;;;;;;;;;;;;;;4984456;28;92487;-62
2023/09/14 02:01:33;;;;;;;;;;;;;;;;;;4984542;28;93082;-63
2023/09/14 02:03:59;;;;;;;;;;;;;;;;;;4984563;28;93097;-63
2023/09/14 02:06:24;;;;;;;;;;;;;;;;;;4984326;28;92247;-63
2023/09/14 02:08:49;;;;;;;;;;;;;;;;;;4984953;28;92290;-61
2023/09/14 02:11:14;;;;;;;;;;;;;;;;;;4984430;28;92699;-62
2023/09/14 02:13:40;;;;;;;;;;;;;;;;;;4974418;28;92210;-61
2023/09/14 02:16:05;;;;;;;;;;;;;;;;;;4964060;28;94667;-63
2023/09/14 02:18:31;;;;;;;;;;;;;;;;;;4965317;28;92640;-61
2023/09/14 02:20:56;;;;;;;;;;;;;;;;;;4963544;28;92713;-60
2023/09/14 02:23:21;;;;;;;;;;;;;;;;;;4965178;28;93040;-62
2023/09/14 02:25:48;;;;;;;;;;;;;;;;;;4965500;28;92942;-60
2023/09/14 02:28:13;;;;;;;;;;;;;;;;;;4966007;28;92587;-62
2023/09/14 02:30:39;;;;;;;;;;;;;;;;;;4964296;28;93698;-61
2023/09/14 02:33:06;;;;;;;;;;;;;;;;;;4964737;28;91855;-61
2023/09/14 02:35:31;;;;;;;;;;;;;;;;;;4967397;28;92677;-64
2023/09/14 02:37:56;;;;;;;;;;;;;;;;;;4964103;28;92923;-64
2023/09/14 02:40:21;;;;;;;;;;;;;;;;;;4962013;28;93626;-65
2023/09/14 02:42:47;;;;;;;;;;;;;;;;;;4963810;28;92773;-68
2023/09/14 02:45:12;;;;;;;;;;;;;;;;;;4964232;28;92664;-64
2023/09/14 02:47:37;;;;;;;;;;;;;;;;;;4964555;28;92806;-66
2023/09/14 02:50:02;;;;;;;;;;;;;;;;;;4965730;28;93458;-66
2023/09/14 02:52:28;;;;;;;;;;;;;;;;;;4971292;28;93343;-67
2023/09/14 02:54:53;;;;;;;;;;;;;;;;;;4972422;28;92534;-65
2023/09/14 02:57:18;;;;;;;;;;;;;;;;;;4972674;28;92891;-62
2023/09/14 02:59:43;;;;;;;;;;;;;;;;;;4972156;28;92976;-60
2023/09/14 03:02:09;;;;;;;;;;;;;;;;;;4974046;28;93135;-60
2023/09/14 03:04:34;;;;;;;;;;;;;;;;;;4972000;28;93430;-62
2023/09/14 03:06:59;;;;;;;;;;;;;;;;;;4971804;28;93070;-61
2023/09/14 03:09:24;;;;;;;;;;;;;;;;;;4973015;28;93901;-61
2023/09/14 03:11:50;;;;;;;;;;;;;;;;;;4977683;28;93728;-63
2023/09/14 03:14:15;;;;;;;;;;;;;;;;;;4973139;28;97497;-62
2023/09/14 03:16:40;;;;;;;;;;;;;;;;;;4969949;28;93845;-61
2023/09/14 03:19:05;;;;;;;;;;;;;;;;;;4973503;28;93774;-62
2023/09/14 03:21:31;;;;;;;;;;;;;;;;;;4968268;28;93691;-62
2023/09/14 03:23:56;;;;;;;;;;;;;;;;;;4973152;28;93791;-62
2023/09/14 03:26:27;;;;;;;;;;;;;;;;;;4965910;28;93652;-62
2023/09/14 03:28:52;;;;;;;;;;;;;;;;;;4967064;28;94935;-65
2023/09/14 03:31:18;;;;;;;;;;;;;;;;;;4970934;28;92747;-63
2023/09/14 03:33:45;;;;;;;;;;;;;;;;;;4972279;28;92917;-62
2023/09/14 03:36:11;;;;;;;;;;;;;;;;;;4968033;28;92867;-62
2023/09/14 03:38:36;;;;;;;;;;;;;;;;;;4973324;28;93326;-61
2023/09/14 03:41:02;;;;;;;;;;;;;;;;;;4975884;28;92518;-65
2023/09/14 03:43:27;;;;;;;;;;;;;;;;;;4972835;28;92514;-63
2023/09/14 03:45:52;;;;;;;;;;;;;;;;;;4975008;28;93119;-62
2023/09/14 03:48:17;;;;;;;;;;;;;;;;;;4973857;28;93233;-63
2023/09/14 03:50:43;;;;;;;;;;;;;;;;;;4973560;28;92906;-65
2023/09/14 03:53:10;;;;;;;;;;;;;;;;;;4971479;28;93548;-61
2023/09/14 03:55:35;;;;;;;;;;;;;;;;;;4968603;28;94312;-62
2023/09/14 03:58:00;;;;;;;;;;;;;;;;;;4969281;28;92916;-62
2023/09/14 04:00:26;;;;;;;;;;;;;;;;;;4978218;28;92838;-61
2023/09/14 04:02:51;;;;;;;;;;;;;;;;;;4969360;28;92731;-61
2023/09/14 04:05:17;;;;;;;;;;;;;;;;;;4971545;28;93597;-63
2023/09/14 04:07:45;;;;;;;;;;;;;;;;;;4969561;28;93900;-62
2023/09/14 04:10:11;;;;;;;;;;;;;;;;;;4968005;28;92140;-63
2023/09/14 04:12:40;;;;;;;;;;;;;;;;;;4970941;28;93589;-66
2023/09/14 04:15:06;;;;;;;;;;;;;;;;;;4968856;28;94059;-65
2023/09/14 04:17:31;;;;;;;;;;;;;;;;;;4971184;28;93776;-63
2023/09/14 04:19:56;;;;;;;;;;;;;;;;;;4971373;28;92257;-61
2023/09/14 04:22:21;;;;;;;;;;;;;;;;;;4974294;28;93578;-61
2023/09/14 04:24:46;;;;;;;;;;;;;;;;;;4971175;28;93678;-63
2023/09/14 04:27:12;;;;;;;;;;;;;;;;;;4967484;28;93701;-60
2023/09/14 04:29:37;;;;;;;;;;;;;;;;;;4968529;28;92559;-61
2023/09/14 04:32:03;;;;;;;;;;;;;;;;;;4974868;28;93823;-61
2023/09/14 04:34:28;;;;;;;;;;;;;;;;;;4966268;28;92948;-61
2023/09/14 04:36:53;;;;;;;;;;;;;;;;;;4964851;28;93066;-61
2023/09/14 04:39:19;;;;;;;;;;;;;;;;;;4971326;28;92735;-62
2023/09/14 04:41:44;;;;;;;;;;;;;;;;;;4972153;28;94885;-61
2023/09/14 04:44:09;;;;;;;;;;;;;;;;;;4974827;28;92672;-61
2023/09/14 04:46:34;;;;;;;;;;;;;;;;;;4975989;28;92897;-62
2023/09/14 04:49:00;;;;;;;;;;;;;;;;;;4977399;28;92649;-61
2023/09/14 04:51:26;;;;;;;;;;;;;;;;;;4973791;28;92906;-60
2023/09/14 04:53:51;;;;;;;;;;;;;;;;;;4978187;28;92752;-64
2023/09/14 04:56:16;;;;;;;;;;;;;;;;;;4969887;28;93444;-62
2023/09/14 04:58:42;;;;;;;;;;;;;;;;;;4971035;28;92652;-63
2023/09/14 05:01:07;;;;;;;;;;;;;;;;;;4978234;28;93809;-61
2023/09/14 05:03:32;;;;;;;;;;;;;;;;;;4970948;28;92874;-66
2023/09/14 05:05:58;;;;;;;;;;;;;;;;;;4973855;28;93624;-64
2023/09/14 05:08:25;;;;;;;;;;;;;;;;;;4980288;28;92601;-61
2023/09/14 05:10:50;;;;;;;;;;;;;;;;;;4969693;28;95521;-61
2023/09/14 05:13:18;;;;;;;;;;;;;;;;;;4968469;28;95151;-62
2023/09/14 05:15:43;;;;;;;;;;;;;;;;;;4972371;28;92652;-60
2023/09/14 05:18:08;;;;;;;;;;;;;;;;;;4975598;28;93002;-65
2023/09/14 05:20:33;;;;;;;;;;;;;;;;;;4978028;28;92996;-65
2023/09/14 05:22:59;;;;;;;;;;;;;;;;;;4972534;28;94911;-64
2023/09/14 05:25:27;;;;;;;;;;;;;;;;;;4971827;28;94217;-61
2023/09/14 05:27:53;;;;;;;;;;;;;;;;;;4973605;28;93080;-60
2023/09/14 05:30:21;;;;;;;;;;;;;;;;;;4970125;28;94119;-61
2023/09/14 05:32:47;;;;;;;;;;;;;;;;;;4975018;28;93727;-61
2023/09/14 05:35:12;;;;;;;;;;;;;;;;;;4973521;28;92544;-61
2023/09/14 05:37:37;;;;;;;;;;;;;;;;;;4976675;28;93928;-63
2023/09/14 05:40:12;;;;;;;;;;;;;;;;;;4972924;28;92752;-66
2023/09/14 05:42:41;;;;;;;;;;;;;;;;;;4971958;28;92851;-67
2023/09/14 05:45:07;;;;;;;;;;;;;;;;;;4973776;28;93667;-66
2023/09/14 05:47:32;;;;;;;;;;;;;;;;;;4973257;28;91912;-66
2023/09/14 05:49:57;;;;;;;;;;;;;;;;;;4978728;28;92805;-64
2023/09/14 05:52:23;;;;;;;;;;;;;;;;;;4975695;28;92856;-65
2023/09/14 05:54:48;;;;;;;;;;;;;;;;;;4971637;28;93219;-65
2023/09/14 05:57:14;;;;;;;;;;;;;;;;;;4975950;28;93228;-67
2023/09/14 05:59:39;;;;;;;;;;;;;;;;;;4975490;28;93810;-63
2023/09/14 06:02:05;;;;;;;;;;;;;;;;;;4974898;28;92501;-64
2023/09/14 06:04:31;;;;;;;;;;;;;;;;;;4970141;28;93104;-63
2023/09/14 06:06:56;;;;;;;;;;;;;;;;;;4979681;28;93958;-62
2023/09/14 06:09:21;;;;;;;;;;;;;;;;;;4982088;28;93869;-64
2023/09/14 06:11:46;;;;;;;;;;;;;;;;;;4971304;28;92956;-63
2023/09/14 06:14:12;;;;;;;;;;;;;;;;;;4971121;28;92666;-62
2023/09/14 06:16:37;;;;;;;;;;;;;;;;;;4971591;28;92788;-68
2023/09/14 06:19:02;;;;;;;;;;;;;;;;;;4971689;28;94093;-61
2023/09/14 06:21:27;;;;;;;;;;;;;;;;;;4974095;28;92493;-60
2023/09/14 06:23:52;;;;;;;;;;;;;;;;;;4974384;28;93126;-61
2023/09/14 06:26:18;;;;;;;;;;;;;;;;;;4976317;28;92877;-61
2023/09/14 06:28:43;;;;;;;;;;;;;;;;;;4973361;28;92470;-64
2023/09/14 06:31:09;;;;;;;;;;;;;;;;;;4978479;28;92879;-61
2023/09/14 06:33:34;;;;;;;;;;;;;;;;;;4972141;28;93419;-66
2023/09/14 06:35:59;;;;;;;;;;;;;;;;;;4978711;28;92492;-69
2023/09/14 06:38:24;;;;;;;;;;;;;;;;;;4974864;28;94203;-72
2023/09/14 06:40:50;;;;;;;;;;;;;;;;;;4974062;28;92652;-62
2023/09/14 06:43:15;;;;;;;;;;;;;;;;;;4973279;28;93520;-68
2023/09/14 06:45:40;;;;;;;;;;;;;;;;;;4971201;28;93077;-66
2023/09/14 06:48:06;;;;;;;;;;;;;;;;;;4973890;28;92994;-66
2023/09/14 06:50:31;;;;;;;;;;;;;;;;;;4977373;28;93424;-66
2023/09/14 06:52:56;;;;;;;;;;;;;;;;;;4975866;28;93768;-64
2023/09/14 06:55:22;;;;;;;;;;;;;;;;;;4970683;28;93681;-72
2023/09/14 06:57:47;;;;;;;;;;;;;;;;;;4973343;28;92683;-71
2023/09/14 07:00:20;;;;;;;;;;;;;;;;;;4974666;28;92071;-68
2023/09/14 07:02:46;;;;;;;;;;;;;;;;;;4974344;28;92625;-63
2023/09/14 07:05:11;;;;;;;;;;;;;;;;;;4969383;28;93923;-63
2023/09/14 07:07:37;;;;;;;;;;;;;;;;;;4972417;28;94411;-70
2023/09/14 07:10:03;;;;;;;;;;;;;;;;;;4974939;28;93339;-62
2023/09/14 07:12:28;;;;;;;;;;;;;;;;;;4971701;28;93207;-65
2023/09/14 07:14:54;;;;;;;;;;;;;;;;;;4974688;28;92269;-63
2023/09/14 07:17:19;;;;;;;;;;;;;;;;;;4971775;28;92597;-66
2023/09/14 07:19:44;;;;;;;;;;;;;;;;;;4970586;28;92430;-64
2023/09/14 07:22:09;;;;;;;;;;;;;;;;;;4973579;28;94286;-65
2023/09/14 07:24:35;;;;;;;;;;;;;;;;;;4974019;28;92285;-61
2023/09/14 07:27:00;;;;;;;;;;;;;;;;;;4970244;28;92778;-61
2023/09/14 07:29:26;;;;;;;;;;;;;;;;;;4968585;28;93060;-71
2023/09/14 07:31:51;;;;;;;;;;;;;;;;;;4974620;28;94024;-70
2023/09/14 07:34:16;;;;;;;;;;;;;;;;;;4976633;28;92960;-64
2023/09/14 07:36:42;;;;;;;;;;;;;;;;;;4976087;28;93523;-61
2023/09/14 07:39:08;;;;;;;;;;;;;;;;;;4971688;28;93150;-61
2023/09/14 07:41:33;;;;;;;;;;;;;;;;;;4974030;28;92892;-70
2023/09/14 07:43:58;;;;;;;;;;;;;;;;;;4972435;28;92747;-66
2023/09/14 07:46:23;;;;;;;;;;;;;;;;;;4975888;28;93620;-61
2023/09/14 07:48:48;;;;;;;;;;;;;;;;;;4974636;28;93321;-61
2023/09/14 07:51:14;;;;;;;;;;;;;;;;;;4977184;28;93418;-64
2023/09/14 07:53:39;;;;;;;;;;;;;;;;;;4973379;28;92424;-62
2023/09/14 07:56:04;;;;;;;;;;;;;;;;;;4973281;28;94627;-60
2023/09/14 07:58:29;;;;;;;;;;;;;;;;;;4973037;28;93230;-63
2023/09/14 08:00:54;;;;;;;;;;;;;;;;;;4972158;28;93972;-61
2023/09/14 08:03:20;;;;;;;;;;;;;;;;;;4974028;28;92791;-66
2023/09/14 08:05:46;;;;;;;;;;;;;;;;;;4969474;28;94104;-67
2023/09/14 08:08:11;;;;;;;;;;;;;;;;;;4973948;28;93624;-65
2023/09/14 08:10:37;;;;;;;;;;;;;;;;;;4974775;28;93012;-68
2023/09/14 08:13:02;;;;;;;;;;;;;;;;;;4970239;28;92213;-62
2023/09/14 08:15:28;;;;;;;;;;;;;;;;;;4971659;28;93980;-60
2023/09/14 08:17:53;;;;;;;;;;;;;;;;;;4975590;28;92717;-61
2023/09/14 08:20:18;;;;;;;;;;;;;;;;;;4972141;28;93471;-60
2023/09/14 08:22:44;;;;;;;;;;;;;;;;;;4972856;28;94728;-62
2023/09/14 08:25:10;;;;;;;;;;;;;;;;;;4971056;28;92959;-61
2023/09/14 08:27:38;;;;;;;;;;;;;;;;;;4973133;28;93628;-63
2023/09/14 08:30:05;;;;;;;;;;;;;;;;;;4969360;28;93822;-65
2023/09/14 08:32:30;;;;;;;;;;;;;;;;;;4970841;28;92748;-62
2023/09/14 08:34:56;;;;;;;;;;;;;;;;;;4973067;28;92723;-60
2023/09/14 08:37:21;;;;;;;;;;;;;;;;;;4968473;28;93084;-64
2023/09/14 08:39:47;;;;;;;;;;;;;;;;;;4974986;28;93353;-60
2023/09/14 08:42:13;;;;;;;;;;;;;;;;;;4973535;28;93561;-61
2023/09/14 08:44:39;;;;;;;;;;;;;;;;;;4966237;28;93895;-61
2023/09/14 08:47:05;;;;;;;;;;;;;;;;;;4972985;28;94634;-64
2023/09/14 08:49:33;;;;;;;;;;;;;;;;;;4974844;28;93610;-65
2023/09/14 08:51:59;;;;;;;;;;;;;;;;;;4975387;28;93058;-65
2023/09/14 08:54:25;;;;;;;;;;;;;;;;;;4975817;28;93560;-64
2023/09/14 08:56:51;;;;;;;;;;;;;;;;;;4975962;28;92830;-62
2023/09/14 08:59:18;;;;;;;;;;;;;;;;;;4969362;28;93983;-63
2023/09/14 09:01:44;;;;;;;;;;;;;;;;;;4971508;28;94249;-63
2023/09/14 09:04:10;;;;;;;;;;;;;;;;;;4976620;28;92636;-64
2023/09/14 09:06:36;;;;;;;;;;;;;;;;;;4974730;28;94049;-63
2023/09/14 09:09:02;;;;;;;;;;;;;;;;;;4969492;28;95159;-62
2023/09/14 09:11:28;;;;;;;;;;;;;;;;;;4973379;28;92629;-62
2023/09/14 09:13:53;;;;;;;;;;;;;;;;;;4971698;28;94860;-62
2023/09/14 09:16:19;;;;;;;;;;;;;;;;;;4972993;28;93250;-62
2023/09/14 09:19:05;;;;;;;;;;;;;;;;;;4966641;28;93073;-62
2023/09/14 09:21:32;;;;;;;;;;;;;;;;;;4971681;28;92600;-62
2023/09/14 09:23:58;;;;;;;;;;;;;;;;;;4972453;28;92827;-62
2023/09/14 09:26:24;;;;;;;;;;;;;;;;;;4972143;28;92430;-61
2023/09/14 09:28:49;;;;;;;;;;;;;;;;;;4973550;28;95186;-62
2023/09/14 09:31:15;;;;;;;;;;;;;;;;;;4976428;28;92658;-63
2023/09/14 09:33:41;;;;;;;;;;;;;;;;;;4975928;28;93620;-64
2023/09/14 09:36:16;;;;;;;;;;;;;;;;;;4973046;28;92551;-63
2023/09/14 09:38:41;;;;;;;;;;;;;;;;;;4976140;28;93788;-66
2023/09/14 09:41:09;;;;;;;;;;;;;;;;;;4976647;28;93438;-65
2023/09/14 09:43:34;;;;;;;;;;;;;;;;;;4977716;28;93579;-66
2023/09/14 09:45:59;;;;;;;;;;;;;;;;;;4978022;28;92733;-65
2023/09/14 09:48:27;;;;;;;;;;;;;;;;;;4977735;28;93206;-65
2023/09/14 09:50:53;;;;;;;;;;;;;;;;;;4975714;28;92002;-65
2023/09/14 09:53:19;;;;;;;;;;;;;;;;;;4973644;28;92969;-65
2023/09/14 09:55:47;;;;;;;;;;;;;;;;;;4975366;28;92734;-64
2023/09/14 09:58:16;;;;;;;;;;;;;;;;;;4972698;28;94519;-65
2023/09/14 10:00:42;;;;;;;;;;;;;;;;;;4972247;28;94272;-66
2023/09/14 10:03:07;;;;;;;;;;;;;;;;;;4974491;28;93068;-65
2023/09/14 10:05:36;;;;;;;;;;;;;;;;;;4977038;28;92796;-76
2023/09/14 10:08:02;;;;;;;;;;;;;;;;;;4974254;28;93920;-66
2023/09/14 10:10:28;;;;;;;;;;;;;;;;;;4970355;28;93005;-62
2023/09/14 10:12:54;;;;;;;;;;;;;;;;;;4971600;28;92941;-64
2023/09/14 10:15:20;;;;;;;;;;;;;;;;;;4972385;28;92937;-64
2023/09/14 10:17:47;;;;;;;;;;;;;;;;;;4973779;28;95180;-64
2023/09/14 10:20:12;;;;;;;;;;;;;;;;;;4974963;28;92740;-64
2023/09/14 10:22:40;;;;;;;;;;;;;;;;;;4973783;28;94224;-63
2023/09/14 10:25:07;;;;;;;;;;;;;;;;;;4976329;28;92994;-64
2023/09/14 10:27:33;;;;;;;;;;;;;;;;;;4978026;28;92618;-64
2023/09/14 10:29:59;;;;;;;;;;;;;;;;;;4973789;28;94357;-68
2023/09/14 10:32:25;;;;;;;;;;;;;;;;;;4978520;28;93945;-64
2023/09/14 10:34:50;;;;;;;;;;;;;;;;;;4972478;28;92575;-65
2023/09/14 10:37:18;;;;;;;;;;;;;;;;;;4975088;28;93222;-64
2023/09/14 10:39:44;;;;;;;;;;;;;;;;;;4975170;28;92238;-64
2023/09/14 10:42:09;;;;;;;;;;;;;;;;;;4967578;28;93263;-64
2023/09/14 10:44:35;;;;;;;;;;;;;;;;;;4972096;28;92878;-67
2023/09/14 10:47:02;;;;;;;;;;;;;;;;;;4966202;28;93155;-66
2023/09/14 10:49:29;;;;;;;;;;;;;;;;;;4972550;28;93824;-64
2023/09/14 10:51:55;;;;;;;;;;;;;;;;;;4974282;28;93253;-65
2023/09/14 10:54:29;;;;;;;;;;;;;;;;;;4971556;28;92929;-65
2023/09/14 10:56:59;;;;;;;;;;;;;;;;;;4971898;28;93295;-66
2023/09/14 10:59:43;;;;;;;;;;;;;;;;;;4976567;28;92691;-70
2023/09/14 11:02:08;;;;;;;;;;;;;;;;;;4973944;28;94917;-66
2023/09/14 11:04:54;;;;;;;;;;;;;;;;;;4974830;28;91515;-67
2023/09/14 11:07:48;;;;;;;;;;;;;;;;;;4973873;28;93716;-63
2023/09/14 11:10:15;;;;;;;;;;;;;;;;;;4966377;28;93077;-65
2023/09/14 11:12:40;;;;;;;;;;;;;;;;;;4975927;28;95305;-67
2023/09/14 11:15:14;;;;;;;;;;;;;;;;;;4971873;28;92728;-66
2023/09/14 11:17:43;;;;;;;;;;;;;;;;;;4976395;28;92797;-66
2023/09/14 11:20:31;;;;;;;;;;;;;;;;;;4976142;28;92228;-68
2023/09/14 11:23:02;;;;;;;;;;;;;;;;;;4965831;28;94217;-64
2023/09/14 11:25:33;;;;;;;;;;;;;;;;;;4973912;28;92727;-66
2023/09/14 11:27:59;;;;;;;;;;;;;;;;;;4971169;28;93576;-70
2023/09/14 11:30:25;;;;;;;;;;;;;;;;;;4973739;28;94186;-62
2023/09/14 11:32:54;;;;;;;;;;;;;;;;;;4965828;28;94238;-65
2023/09/14 11:35:38;;;;;;;;;;;;;;;;;;4970117;28;96408;-67
2023/09/14 11:38:05;;;;;;;;;;;;;;;;;;4969412;28;94892;-66
2023/09/14 11:40:34;;;;;;;;;;;;;;;;;;4973429;28;93397;-64
2023/09/14 11:43:21;;;;;;;;;;;;;;;;;;4978370;28;96413;-67
2023/09/14 11:46:00;;;;;;;;;;;;;;;;;;4975493;28;93262;-65
2023/09/14 11:48:38;;;;;;;;;;;;;;;;;;4974214;28;93096;-65
2023/09/14 11:51:04;;;;;;;;;;;;;;;;;;4970618;28;94050;-65
2023/09/14 11:53:33;;;;;;;;;;;;;;;;;;4975615;28;92362;-65
2023/09/14 11:55:58;;;;;;;;;;;;;;;;;;4977290;28;92517;-69
2023/09/14 11:58:23;;;;;;;;;;;;;;;;;;4976846;28;93233;-69
2023/09/14 12:00:54;;;;;;;;;;;;;;;;;;4972197;28;94004;-68
2023/09/14 12:03:20;;;;;;;;;;;;;;;;;;4967950;28;94854;-69
2023/09/14 12:05:47;;;;;;;;;;;;;;;;;;4972591;28;93063;-64
2023/09/14 12:08:16;;;;;;;;;;;;;;;;;;4976058;28;92635;-64
2023/09/14 12:10:41;;;;;;;;;;;;;;;;;;4974150;28;93624;-66
2023/09/14 12:13:08;;;;;;;;;;;;;;;;;;4974139;28;93028;-65
2023/09/14 12:15:33;;;;;;;;;;;;;;;;;;4973286;28;92766;-65
2023/09/14 12:17:58;;;;;;;;;;;;;;;;;;4973340;28;92797;-63
2023/09/14 12:20:24;;;;;;;;;;;;;;;;;;4973036;28;92095;-66
2023/09/14 12:22:49;;;;;;;;;;;;;;;;;;4974320;28;93176;-63
2023/09/14 12:25:16;;;;;;;;;;;;;;;;;;4973759;28;92568;-66
2023/09/14 12:27:42;;;;;;;;;;;;;;;;;;4970831;28;94051;-65
2023/09/14 12:30:09;;;;;;;;;;;;;;;;;;4973708;28;93128;-66
2023/09/14 12:32:35;;;;;;;;;;;;;;;;;;4971027;28;92743;-66
2023/09/14 12:35:01;;;;;;;;;;;;;;;;;;4971306;28;92916;-68
2023/09/14 12:37:27;;;;;;;;;;;;;;;;;;4971906;28;93832;-67
2023/09/14 12:39:52;;;;;;;;;;;;;;;;;;4977202;28;93428;-68
2023/09/14 12:42:21;;;;;;;;;;;;;;;;;;4969326;28;95100;-68
2023/09/14 12:44:47;;;;;;;;;;;;;;;;;;4976620;28;92194;-66
2023/09/14 12:47:12;;;;;;;;;;;;;;;;;;4972136;28;92410;-66
2023/09/14 12:49:37;;;;;;;;;;;;;;;;;;4974365;28;92784;-62
2023/09/14 12:52:05;;;;;;;;;;;;;;;;;;4974733;28;95204;-65
2023/09/14 12:54:31;;;;;;;;;;;;;;;;;;4973537;28;95478;-65
2023/09/14 12:56:56;;;;;;;;;;;;;;;;;;4977851;28;93866;-65
2023/09/14 12:59:22;;;;;;;;;;;;;;;;;;4975620;28;93893;-66
2023/09/14 13:01:48;;;;;;;;;;;;;;;;;;4978642;28;95255;-66
2023/09/14 13:04:13;;;;;;;;;;;;;;;;;;4968981;28;93231;-66
2023/09/14 13:06:39;;;;;;;;;;;;;;;;;;4975900;28;93813;-66
2023/09/14 13:09:08;;;;;;;;;;;;;;;;;;4979331;28;93813;-71
2023/09/14 13:11:36;;;;;;;;;;;;;;;;;;4972418;28;92903;-69
2023/09/14 13:14:02;;;;;;;;;;;;;;;;;;4973808;28;93620;-69
2023/09/14 13:16:30;;;;;;;;;;;;;;;;;;4980164;28;94292;-71
2023/09/14 13:18:58;;;;;;;;;;;;;;;;;;4975696;28;92962;-69
2023/09/14 13:21:23;;;;;;;;;;;;;;;;;;4977500;28;95093;-69
2023/09/14 13:23:48;;;;;;;;;;;;;;;;;;4982484;28;93272;-69
2023/09/14 13:26:14;;;;;;;;;;;;;;;;;;4977198;28;93629;-72
2023/09/14 13:28:39;;;;;;;;;;;;;;;;;;4974194;28;94214;-69
2023/09/14 13:31:05;;;;;;;;;;;;;;;;;;4971119;28;92666;-64
2023/09/14 13:33:30;;;;;;;;;;;;;;;;;;4975390;28;92403;-68
2023/09/14 13:36:00;;;;;;;;;;;;;;;;;;4971954;28;92953;-66
2023/09/14 13:38:27;;;;;;;;;;;;;;;;;;4978729;28;92834;-67
2023/09/14 13:40:52;;;;;;;;;;;;;;;;;;4971520;28;94387;-63
2023/09/14 13:43:17;;;;;;;;;;;;;;;;;;4975033;28;95345;-67
2023/09/14 13:45:42;;;;;;;;;;;;;;;;;;4976474;28;92375;-66
2023/09/14 13:48:08;;;;;;;;;;;;;;;;;;4977153;28;94246;-71
2023/09/14 13:50:33;;;;;;;;;;;;;;;;;;4976572;28;92677;-72
2023/09/14 13:52:58;;;;;;;;;;;;;;;;;;4971172;28;95392;-70
2023/09/14 13:55:24;;;;;;;;;;;;;;;;;;4973943;28;93832;-70
2023/09/14 13:57:49;;;;;;;;;;;;;;;;;;4972688;28;93071;-71
2023/09/14 14:00:16;;;;;;;;;;;;;;;;;;4976609;28;94163;-72
2023/09/14 14:02:42;;;;;;;;;;;;;;;;;;4971750;28;93303;-68
2023/09/14 14:05:08;;;;;;;;;;;;;;;;;;4975947;28;93887;-70
2023/09/14 14:07:33;;;;;;;;;;;;;;;;;;4974577;28;95216;-68
2023/09/14 14:09:58;;;;;;;;;;;;;;;;;;4977162;28;92572;-70
2023/09/14 14:12:24;;;;;;;;;;;;;;;;;;4972978;28;94092;-73
2023/09/14 14:14:51;;;;;;;;;;;;;;;;;;4972419;28;96221;-66
2023/09/14 14:17:16;;;;;;;;;;;;;;;;;;4972466;28;93136;-64
2023/09/14 14:19:42;;;;;;;;;;;;;;;;;;4973285;28;92670;-70
2023/09/14 14:22:07;;;;;;;;;;;;;;;;;;4971419;28;92015;-69
2023/09/14 14:24:32;;;;;;;;;;;;;;;;;;4977589;28;92562;-70
2023/09/14 14:26:58;;;;;;;;;;;;;;;;;;4977300;28;93628;-66
2023/09/14 14:29:23;;;;;;;;;;;;;;;;;;4971801;28;93754;-74
2023/09/14 14:31:48;;;;;;;;;;;;;;;;;;4975947;28;96291;-65
2023/09/14 14:34:14;;;;;;;;;;;;;;;;;;4973677;28;93363;-74
2023/09/14 14:36:40;;;;;;;;;;;;;;;;;;4974598;28;93123;-63
2023/09/14 14:39:05;;;;;;;;;;;;;;;;;;4975980;28;93205;-65
2023/09/14 14:41:31;;;;;;;;;;;;;;;;;;4976839;28;92646;-66
2023/09/14 14:43:56;;;;;;;;;;;;;;;;;;4976632;28;93508;-63
2023/09/14 14:46:22;;;;;;;;;;;;;;;;;;4976876;28;92771;-64
2023/09/14 14:48:48;;;;;;;;;;;;;;;;;;4979882;28;93741;-69
2023/09/14 14:51:13;;;;;;;;;;;;;;;;;;4976761;28;92861;-64
2023/09/14 14:53:41;;;;;;;;;;;;;;;;;;4972020;28;94306;-65
2023/09/14 14:56:07;;;;;;;;;;;;;;;;;;4975272;28;93188;-63
2023/09/14 14:58:32;;;;;;;;;;;;;;;;;;4977581;28;92684;-67
2023/09/14 15:00:58;;;;;;;;;;;;;;;;;;4972678;28;96545;-66
2023/09/14 15:03:24;;;;;;;;;;;;;;;;;;4972175;28;92462;-66
2023/09/14 15:05:50;;;;;;;;;;;;;;;;;;4976169;28;92904;-66
2023/09/14 15:08:15;;;;;;;;;;;;;;;;;;4969199;28;95489;-67
2023/09/14 15:10:40;;;;;;;;;;;;;;;;;;4973540;28;92016;-67
2023/09/14 15:13:06;;;;;;;;;;;;;;;;;;4973378;28;93263;-66
2023/09/14 15:15:31;;;;;;;;;;;;;;;;;;4970992;28;92580;-66
2023/09/14 15:17:56;;;;;;;;;;;;;;;;;;4977032;28;94731;-66
2023/09/14 15:20:21;;;;;;;;;;;;;;;;;;4976342;28;92625;-65
2023/09/14 15:22:47;;;;;;;;;;;;;;;;;;4973055;28;94263;-64
2023/09/14 15:25:12;;;;;;;;;;;;;;;;;;4974918;28;93367;-65
2023/09/14 15:27:37;;;;;;;;;;;;;;;;;;4971980;28;93911;-70
2023/09/14 15:30:03;;;;;;;;;;;;;;;;;;4974252;28;92558;-70
2023/09/14 15:32:29;;;;;;;;;;;;;;;;;;4978931;28;93562;-65
2023/09/14 15:34:54;;;;;;;;;;;;;;;;;;4971442;28;91827;-71
2023/09/14 15:37:20;;;;;;;;;;;;;;;;;;4976974;28;92691;-72
2023/09/14 15:39:45;;;;;;;;;;;;;;;;;;4971628;28;93918;-66
2023/09/14 15:42:10;;;;;;;;;;;;;;;;;;4973773;28;93268;-64
2023/09/14 15:44:40;;;;;;;;;;;;;;;;;;4970897;28;94749;-71
2023/09/14 15:47:06;;;;;;;;;;;;;;;;;;4975412;28;93070;-66
2023/09/14 15:49:31;;;;;;;;;;;;;;;;;;4974568;28;93513;-66
2023/09/14 15:51:59;;;;;;;;;;;;;;;;;;4970689;28;93055;-64
2023/09/14 15:54:25;;;;;;;;;;;;;;;;;;4976177;28;93904;-72
2023/09/14 15:56:50;;;;;;;;;;;;;;;;;;4976215;28;93560;-74
2023/09/14 15:59:16;;;;;;;;;;;;;;;;;;4969273;28;95130;-69
2023/09/14 16:01:41;;;;;;;;;;;;;;;;;;4976151;28;93834;-71
2023/09/14 16:04:07;;;;;;;;;;;;;;;;;;4971754;28;93825;-71
2023/09/14 16:06:32;;;;;;;;;;;;;;;;;;4968538;28;96507;-73
2023/09/14 16:08:58;;;;;;;;;;;;;;;;;;4971778;28;92781;-67
2023/09/14 16:11:23;;;;;;;;;;;;;;;;;;4971033;28;93823;-66
2023/09/14 16:13:48;;;;;;;;;;;;;;;;;;4975579;28;92698;-68
2023/09/14 16:16:13;;;;;;;;;;;;;;;;;;4971983;28;92293;-69
2023/09/14 16:18:39;;;;;;;;;;;;;;;;;;4974123;28;92982;-67
2023/09/14 16:21:05;;;;;;;;;;;;;;;;;;4972671;28;92857;-68
2023/09/14 16:23:30;;;;;;;;;;;;;;;;;;4976124;28;92940;-66
2023/09/14 16:25:55;;;;;;;;;;;;;;;;;;4972588;28;93248;-65
2023/09/14 16:28:21;;;;;;;;;;;;;;;;;;4970165;28;92925;-63
2023/09/14 16:30:48;;;;;;;;;;;;;;;;;;4968320;28;94420;-64
2023/09/14 16:33:13;;;;;;;;;;;;;;;;;;4969274;28;93066;-63
2023/09/14 16:35:39;;;;;;;;;;;;;;;;;;4974250;28;92316;-74
2023/09/14 16:38:04;;;;;;;;;;;;;;;;;;4973234;28;93768;-71
2023/09/14 16:40:29;;;;;;;;;;;;;;;;;;4979078;28;92960;-71